Time;durP1;ratioP1;P1;durP2;ratioP2;P2;SDS_P1;SDS_P2;PMS_P1;PMS_P2;Temp;Humidity;BMP_temperature;BMP_pressure;BME280_temperature;BME280_humidity;BME280_pressure;Samples;Min_cycle;Max_cycle;Signal;HPM_P1;HPM_P2
2022/11/10 00:00:37;;;;;;;14.37;13.97;;;12.50;1.00;;;;;;4887397;29;20701;-82
2022/11/10 00:03:08;;;;;;;14.30;13.90;;;12.50;1.00;;;;;;4883922;29;20476;-82
2022/11/10 00:05:37;;;;;;;14.30;13.90;;;12.50;1.00;;;;;;4884043;29;20529;-83
2022/11/10 00:08:08;;;;;;;14.50;14.07;;;12.50;1.00;;;;;;4885214;29;20567;-83
2022/11/10 00:10:55;;;;;;;15.40;14.90;;;12.60;1.00;;;;;;4887841;29;20504;-83
2022/11/10 00:13:25;;;;;;;16.20;15.70;;;12.50;1.00;;;;;;4885114;29;20502;-83
2022/11/10 00:18:40;;;;;;;17.37;16.67;;;12.60;1.00;;;;;;4883274;29;20966;-84
2022/11/10 00:21:10;;;;;;;17.47;16.67;;;12.50;1.00;;;;;;4880020;29;20466;-81
2022/11/10 00:23:38;;;;;;;15.20;14.70;;;12.50;1.00;;;;;;4890374;29;20460;-82
2022/11/10 00:26:14;;;;;;;15.57;15.07;;;12.40;1.00;;;;;;4890544;29;21008;-82
2022/11/10 00:28:43;;;;;;;15.00;14.60;;;12.40;1.00;;;;;;4883029;29;20477;-84
2022/11/10 00:31:12;;;;;;;14.60;14.23;;;12.40;1.00;;;;;;4888647;29;20630;-84
2022/11/10 00:33:42;;;;;;;14.50;14.00;;;12.30;1.00;;;;;;4898915;29;20516;-82
2022/11/10 00:36:11;;;;;;;15.20;14.70;;;12.30;1.00;;;;;;4889724;29;20456;-83
2022/11/10 00:38:39;;;;;;;14.67;14.27;;;12.20;1.00;;;;;;4892550;29;20534;-83
2022/11/10 00:41:07;;;;;;;14.30;14.00;;;12.20;1.00;;;;;;4890638;29;20492;-83
2022/11/10 00:43:36;;;;;;;15.00;14.40;;;12.20;1.00;;;;;;4890239;29;20472;-81
2022/11/10 00:46:05;;;;;;;14.53;14.03;;;12.20;1.00;;;;;;4888797;29;21115;-83
2022/11/10 00:48:33;;;;;;;14.10;13.70;;;12.20;1.00;;;;;;4888397;29;20518;-83
2022/11/10 00:51:01;;;;;;;14.47;14.07;;;12.10;1.00;;;;;;4889378;29;20527;-83
2022/11/10 00:53:29;;;;;;;14.30;13.90;;;12.00;1.00;;;;;;4890432;29;20459;-83
2022/11/10 00:55:57;;;;;;;15.00;14.50;;;12.20;1.00;;;;;;4895427;29;20485;-83
2022/11/10 00:58:25;;;;;;;15.07;14.20;;;12.20;1.00;;;;;;4891206;29;20520;-83
2022/11/10 01:01:02;;;;;;;14.63;14.23;;;12.30;99.90;;;;;;4888549;29;20543;-82
2022/11/10 01:03:30;;;;;;;15.17;14.67;;;12.30;99.90;;;;;;4890240;29;20558;-83
2022/11/10 01:05:58;;;;;;;14.77;14.27;;;12.30;99.90;;;;;;4890301;29;21178;-82
2022/11/10 01:08:27;;;;;;;14.30;13.90;;;12.30;99.90;;;;;;4887925;29;20496;-84
2022/11/10 01:11:02;;;;;;;14.40;13.90;;;12.30;99.90;;;;;;4888304;29;20457;-84
2022/11/10 01:13:30;;;;;;;14.37;13.97;;;12.10;99.90;;;;;;4888408;29;20877;-83
2022/11/10 01:16:05;;;;;;;14.80;14.10;;;12.20;99.90;;;;;;4888822;29;20457;-82
2022/11/10 01:18:33;;;;;;;14.20;13.80;;;12.20;1.00;;;;;;4884940;29;20524;-82
2022/11/10 01:21:02;;;;;;;14.83;14.33;;;12.10;1.00;;;;;;4888383;29;20465;-83
2022/11/10 01:23:31;;;;;;;14.53;14.13;;;12.10;1.00;;;;;;4886607;29;20483;-83
2022/11/10 01:26:00;;;;;;;14.47;14.07;;;12.10;1.00;;;;;;4888451;29;20559;-81
2022/11/10 01:28:29;;;;;;;14.60;14.00;;;12.20;99.90;;;;;;4882886;29;20558;-84
2022/11/10 01:30:58;;;;;;;14.53;13.93;;;12.10;1.00;;;;;;4888845;29;20457;-84
2022/11/10 01:33:29;;;;;;;14.50;14.00;;;12.00;1.00;;;;;;4888557;29;20466;-83
2022/11/10 01:35:57;;;;;;;13.90;13.50;;;12.10;1.00;;;;;;4887352;29;20548;-84
2022/11/10 01:38:27;;;;;;;14.03;13.70;;;12.00;1.00;;;;;;4890273;29;20997;-83
2022/11/10 01:40:56;;;;;;;14.63;14.07;;;12.00;1.00;;;;;;4890659;29;20464;-83
2022/11/10 01:43:24;;;;;;;14.00;13.60;;;12.00;1.00;;;;;;4884164;29;20467;-84
2022/11/10 01:45:53;;;;;;;14.23;13.83;;;12.10;1.00;;;;;;4887513;29;20482;-82
2022/11/10 01:48:31;;;;;;;14.97;14.27;;;12.10;1.00;;;;;;4886531;29;20512;-82
2022/11/10 01:51:03;;;;;;;13.93;13.53;;;12.00;1.00;;;;;;4887485;29;20497;-83
2022/11/10 01:53:34;;;;;;;14.33;13.83;;;12.00;1.00;;;;;;4885373;29;20545;-83
2022/11/10 01:56:03;;;;;;;14.30;13.70;;;12.00;1.00;;;;;;4887935;29;20462;-82
2022/11/10 01:58:38;;;;;;;14.13;13.70;;;12.00;1.00;;;;;;4881031;29;20931;-82
2022/11/10 02:01:07;;;;;;;14.13;13.73;;;12.00;1.00;;;;;;4886898;29;20465;-81
2022/11/10 02:03:42;;;;;;;13.70;13.07;;;11.90;1.00;;;;;;4891636;29;20468;-82
2022/11/10 02:06:12;;;;;;;13.90;13.40;;;11.80;1.00;;;;;;4889550;29;20448;-83
2022/11/10 02:08:42;;;;;;;14.33;13.73;;;11.90;1.00;;;;;;4888298;29;20499;-83
2022/11/10 02:11:11;;;;;;;13.77;13.30;;;11.80;1.00;;;;;;4883726;29;20562;-83
2022/11/10 02:13:40;;;;;;;13.57;12.93;;;11.80;1.00;;;;;;4888800;29;20997;-83
2022/11/10 02:16:10;;;;;;;13.90;13.60;;;11.80;1.00;;;;;;4879923;29;21031;-83
2022/11/10 02:18:39;;;;;;;14.70;13.90;;;11.80;1.00;;;;;;4892934;29;20546;-83
2022/11/10 02:21:10;;;;;;;14.13;13.67;;;11.80;1.00;;;;;;4886786;29;20473;-83
2022/11/10 02:23:47;;;;;;;14.40;14.00;;;11.80;1.00;;;;;;4882695;29;20468;-84
2022/11/10 02:26:19;;;;;;;14.30;13.87;;;11.80;1.00;;;;;;4883814;29;20443;-83
2022/11/10 02:28:47;;;;;;;14.00;13.60;;;11.70;1.00;;;;;;4882475;29;20481;-83
2022/11/10 02:31:16;;;;;;;14.50;14.00;;;11.70;1.00;;;;;;4884172;29;20509;-83
2022/11/10 02:33:44;;;;;;;14.30;13.87;;;11.60;1.00;;;;;;4885918;29;20491;-81
2022/11/10 02:36:14;;;;;;;14.60;14.00;;;11.60;1.00;;;;;;4887062;29;20455;-82
2022/11/10 02:38:42;;;;;;;14.17;13.63;;;11.50;1.00;;;;;;4892707;29;20558;-83
2022/11/10 02:41:10;;;;;;;14.30;13.90;;;11.50;1.00;;;;;;4888063;29;20800;-83
2022/11/10 02:43:39;;;;;;;13.97;13.57;;;11.50;1.00;;;;;;4890113;29;20522;-82
2022/11/10 02:46:07;;;;;;;14.10;13.60;;;11.50;99.90;;;;;;4887554;29;20470;-82
2022/11/10 02:48:35;;;;;;;14.10;13.70;;;11.40;99.90;;;;;;4888305;29;20487;-83
2022/11/10 02:51:04;;;;;;;13.83;13.40;;;11.40;1.00;;;;;;4883328;29;20565;-83
2022/11/10 02:53:33;;;;;;;14.10;13.60;;;11.40;1.00;;;;;;4890343;29;20463;-82
2022/11/10 02:56:01;;;;;;;13.70;13.30;;;11.40;1.00;;;;;;4883235;29;20463;-82
2022/11/10 02:58:30;;;;;;;14.17;13.50;;;11.30;1.00;;;;;;4889731;29;20492;-82
2022/11/10 03:00:58;;;;;;;13.70;13.30;;;11.40;99.90;;;;;;4884018;29;20519;-83
2022/11/10 03:03:26;;;;;;;14.23;13.73;;;11.30;99.90;;;;;;4886919;29;20464;-80
2022/11/10 03:05:54;;;;;;;13.30;13.00;;;11.20;99.90;;;;;;4887618;29;20520;-82
2022/11/10 03:08:23;;;;;;;14.40;13.80;;;11.00;99.90;;;;;;4888955;29;20489;-81
2022/11/10 03:10:55;;;;;;;13.70;13.30;;;11.10;99.90;;;;;;4889572;29;20448;-81
2022/11/10 03:13:24;;;;;;;13.10;12.70;;;11.10;99.90;;;;;;4892590;29;21020;-81
2022/11/10 03:15:56;;;;;;;13.10;12.70;;;11.20;99.90;;;;;;4879970;29;20824;-81
2022/11/10 03:18:24;;;;;;;13.03;12.63;;;11.20;99.90;;;;;;4890099;29;20475;-82
2022/11/10 03:20:53;;;;;;;12.90;12.50;;;11.10;99.90;;;;;;4885268;29;20473;-83
2022/11/10 03:23:21;;;;;;;13.33;12.77;;;10.90;99.90;;;;;;4889236;29;20558;-82
2022/11/10 03:25:49;;;;;;;13.67;12.87;;;10.80;99.90;;;;;;4890906;29;20471;-82
2022/11/10 03:28:19;;;;;;;13.10;12.50;;;10.80;99.90;;;;;;4887687;29;20486;-80
2022/11/10 03:30:47;;;;;;;13.03;12.37;;;10.80;99.90;;;;;;4887362;29;20477;-82
2022/11/10 03:33:15;;;;;;;12.83;12.30;;;10.90;99.90;;;;;;4888987;29;20481;-82
2022/11/10 03:35:43;;;;;;;12.47;12.07;;;10.90;99.90;;;;;;4886254;29;21027;-82
2022/11/10 03:38:12;;;;;;;12.50;12.10;;;10.80;99.90;;;;;;4889168;29;20485;-83
2022/11/10 03:40:40;;;;;;;12.10;11.80;;;10.80;99.90;;;;;;4888962;29;20955;-83
2022/11/10 03:43:29;;;;;;;12.97;12.23;;;10.80;1.00;;;;;;4885461;29;20496;-83
2022/11/10 03:45:57;;;;;;;12.37;11.97;;;10.80;99.90;;;;;;4890523;29;20496;-83
2022/11/10 03:48:26;;;;;;;12.33;11.87;;;11.00;99.90;;;;;;4887926;29;20495;-83
2022/11/10 03:50:54;;;;;;;12.87;12.40;;;11.00;49.00;;;;;;4888187;29;20475;-82
2022/11/10 03:53:22;;;;;;;12.83;12.37;;;10.70;99.90;;;;;;4889667;29;20468;-84
2022/11/10 03:55:51;;;;;;;11.53;11.23;;;10.50;99.90;;;;;;4889469;29;20499;-83
2022/11/10 03:58:19;;;;;;;11.13;10.83;;;10.50;1.00;;;;;;4890023;29;20490;-83
2022/11/10 04:00:49;;;;;;;11.60;11.30;;;10.50;1.00;;;;;;4887866;29;20552;-82
2022/11/10 04:03:17;;;;;;;11.10;10.80;;;10.50;1.00;;;;;;4888971;29;20470;-82
2022/11/10 04:15:40;;;;;;;11.50;11.20;;;10.40;1.00;;;;;;4888976;29;20459;-82
2022/11/10 04:16:53;;;;;;;11.70;11.30;;;10.40;16.60;;;;;;4887650;29;20490;-83
2022/11/10 04:19:21;;;;;;;12.00;11.43;;;10.30;99.90;;;;;;4888481;29;20663;-83
2022/11/10 04:21:50;;;;;;;11.63;11.20;;;10.30;99.90;;;;;;4887364;29;20471;-83
2022/11/10 04:24:18;;;;;;;12.53;12.03;;;10.40;99.90;;;;;;4885853;29;20481;-82
2022/11/10 04:26:47;;;;;;;12.23;11.83;;;10.40;99.90;;;;;;4889159;29;20833;-82
2022/11/10 04:29:17;;;;;;;11.80;11.40;;;10.50;1.00;;;;;;4890174;29;20494;-82
2022/11/10 04:31:46;;;;;;;11.50;11.20;;;10.50;99.90;;;;;;4889233;29;20982;-82
2022/11/10 04:34:15;;;;;;;11.53;10.87;;;10.40;1.00;;;;;;4888120;29;20459;-83
2022/11/10 04:36:44;;;;;;;11.57;11.03;;;10.30;1.00;;;;;;4886327;29;20479;-82
2022/11/10 04:39:13;;;;;;;11.43;10.93;;;10.20;1.00;;;;;;4900185;29;20549;-83
2022/11/10 04:41:41;;;;;;;11.50;11.10;;;10.20;1.00;;;;;;4887515;29;20521;-83
2022/11/10 04:44:09;;;;;;;10.80;10.40;;;10.10;1.00;;;;;;4890967;29;20510;-82
2022/11/10 04:46:39;;;;;;;11.27;10.17;;;10.10;1.00;;;;;;4885537;29;20468;-83
2022/11/10 04:49:08;;;;;;;10.80;10.40;;;10.20;1.00;;;;;;4886147;29;20522;-82
2022/11/10 04:51:39;;;;;;;10.33;9.60;;;10.10;1.00;;;;;;4887385;29;20453;-83
2022/11/10 04:54:07;;;;;;;10.60;10.10;;;10.00;97.10;;;;;;4886456;29;20449;-82
2022/11/10 04:56:36;;;;;;;10.60;10.30;;;9.90;99.90;;;;;;4883976;29;20554;-83
2022/11/10 04:59:04;;;;;;;10.10;9.80;;;10.00;1.00;;;;;;4887538;29;20477;-83
2022/11/10 05:01:32;;;;;;;10.77;10.10;;;10.10;1.00;;;;;;4880747;29;20525;-83
2022/11/10 05:04:00;;;;;;;9.87;9.57;;;10.00;99.90;;;;;;4884461;29;21009;-83
2022/11/10 05:06:29;;;;;;;9.93;9.50;;;9.80;99.90;;;;;;4880742;29;20458;-82
2022/11/10 05:08:58;;;;;;;11.73;11.23;;;9.70;99.90;;;;;;4883976;29;20475;-82
2022/11/10 05:11:27;;;;;;;9.23;9.03;;;9.60;99.90;;;;;;4883902;29;20470;-82
2022/11/10 05:13:55;;;;;;;9.43;9.10;;;9.60;99.90;;;;;;4887393;29;20478;-83
2022/11/10 05:16:23;;;;;;;9.30;9.10;;;9.70;99.90;;;;;;4891172;29;20456;-82
2022/11/10 05:18:54;;;;;;;9.77;9.07;;;10.00;21.80;;;;;;4891165;29;20451;-82
2022/11/10 05:21:22;;;;;;;9.37;9.07;;;9.90;99.90;;;;;;4896513;29;20469;-81
2022/11/10 05:23:51;;;;;;;9.43;9.10;;;9.80;1.00;;;;;;4888346;29;20544;-81
2022/11/10 05:26:20;;;;;;;10.77;10.27;;;9.70;1.00;;;;;;4891119;29;20465;-83
2022/11/10 05:28:48;;;;;;;9.40;9.00;;;9.60;99.90;;;;;;4893103;29;20513;-82
2022/11/10 05:31:18;;;;;;;9.63;9.27;;;9.60;1.00;;;;;;4887667;29;20515;-83
2022/11/10 05:33:46;;;;;;;9.93;9.43;;;9.60;1.00;;;;;;4894484;29;20584;-82
2022/11/10 05:36:14;;;;;;;11.30;10.30;;;9.60;99.90;;;;;;4883924;29;20467;-80
2022/11/10 05:38:42;;;;;;;9.17;8.87;;;9.70;1.00;;;;;;4893268;29;20559;-80
2022/11/10 05:41:11;;;;;;;8.70;8.40;;;9.50;13.80;;;;;;4887093;29;20547;-83
2022/11/10 05:43:41;;;;;;;9.43;8.93;;;9.40;30.30;;;;;;4895436;29;20568;-81
2022/11/10 05:46:10;;;;;;;8.87;8.57;;;9.60;62.90;;;;;;4896496;29;20840;-81
2022/11/10 05:48:38;;;;;;;9.53;9.03;;;9.70;1.00;;;;;;4890021;29;20526;-84
2022/11/10 05:51:07;;;;;;;9.03;8.60;;;9.50;99.90;;;;;;4891082;29;20497;-81
2022/11/10 05:53:35;;;;;;;9.00;8.70;;;9.40;1.00;;;;;;4893222;29;20472;-82
2022/11/10 05:56:03;;;;;;;9.77;8.80;;;9.50;1.00;;;;;;4889844;29;20549;-83
2022/11/10 05:58:31;;;;;;;8.40;8.10;;;9.40;99.90;;;;;;4890745;29;20478;-82
2022/11/10 06:01:01;;;;;;;8.00;7.70;;;9.30;99.90;;;;;;4891538;29;20497;-82
2022/11/10 06:03:29;;;;;;;8.70;8.20;;;9.40;99.90;;;;;;4894268;29;20499;-82
2022/11/10 06:05:57;;;;;;;8.60;8.10;;;9.50;86.80;;;;;;4886510;29;20475;-83
2022/11/10 06:08:25;;;;;;;10.23;9.53;;;9.30;1.00;;;;;;4887716;29;20596;-81
2022/11/10 06:10:53;;;;;;;12.40;11.30;;;9.30;1.00;;;;;;4888796;29;20490;-81
2022/11/10 06:13:21;;;;;;;7.90;7.70;;;9.30;99.90;;;;;;4887147;29;20478;-81
2022/11/10 06:15:50;;;;;;;13.90;12.70;;;9.30;99.90;;;;;;4889550;29;20460;-84
2022/11/10 06:18:20;;;;;;;9.93;9.43;;;9.30;1.00;;;;;;4888552;29;20567;-85
2022/11/10 06:20:48;;;;;;;8.60;8.20;;;9.20;99.90;;;;;;4890119;29;20875;-82
2022/11/10 06:23:16;;;;;;;9.23;8.73;;;9.10;1.00;;;;;;4887766;29;20861;-82
2022/11/10 06:25:44;;;;;;;12.97;11.97;;;9.10;1.00;;;;;;4888566;29;20958;-83
2022/11/10 06:28:13;;;;;;;9.73;9.03;;;9.30;1.00;;;;;;4885877;29;20970;-83
2022/11/10 06:30:42;;;;;;;9.50;8.90;;;9.20;99.90;;;;;;4888468;29;21075;-82
2022/11/10 06:33:10;;;;;;;8.80;8.40;;;9.20;99.90;;;;;;4886131;29;20458;-82
2022/11/10 06:35:39;;;;;;;9.47;8.63;;;9.20;99.90;;;;;;4884129;29;20560;-81
2022/11/10 06:38:10;;;;;;;9.03;8.53;;;9.40;99.90;;;;;;4888026;29;20594;-79
2022/11/10 06:40:38;;;;;;;8.70;8.30;;;9.30;99.90;;;;;;4885953;29;20460;-81
2022/11/10 06:43:07;;;;;;;8.40;8.10;;;9.30;1.00;;;;;;4885697;29;20464;-81
2022/11/10 06:45:35;;;;;;;8.70;8.30;;;9.20;1.00;;;;;;4887046;29;20511;-83
2022/11/10 06:48:05;;;;;;;10.43;9.70;;;9.10;29.10;;;;;;4881735;29;20532;-82
2022/11/10 06:50:33;;;;;;;10.63;10.00;;;9.10;8.70;;;;;;4890102;29;20481;-82
2022/11/10 06:53:03;;;;;;;11.50;10.80;;;9.30;1.00;;;;;;4886968;29;20560;-84
2022/11/10 06:55:32;;;;;;;11.50;10.70;;;9.30;1.00;;;;;;4888586;29;20450;-84
2022/11/10 06:58:00;;;;;;;11.30;10.53;;;9.40;99.90;;;;;;4885854;29;20490;-83
2022/11/10 07:00:29;;;;;;;10.80;10.20;;;9.40;1.00;;;;;;4885420;29;20534;-82
2022/11/10 07:03:05;;;;;;;10.83;10.00;;;9.30;99.90;;;;;;4875453;29;20467;-84
2022/11/10 07:05:35;;;;;;;10.33;9.83;;;9.20;99.90;;;;;;4884615;29;20511;-82
2022/11/10 07:08:06;;;;;;;11.00;10.40;;;9.30;99.90;;;;;;4883495;29;21042;-83
2022/11/10 07:10:35;;;;;;;12.13;11.30;;;9.40;1.00;;;;;;4888218;29;20483;-81
2022/11/10 07:13:04;;;;;;;10.60;10.20;;;9.40;11.40;;;;;;4888320;29;20523;-83
2022/11/10 07:15:32;;;;;;;10.53;10.07;;;9.30;99.90;;;;;;4886287;29;20497;-82
2022/11/10 07:18:01;;;;;;;10.40;9.87;;;9.30;99.90;;;;;;4884878;29;20486;-84
2022/11/10 07:20:29;;;;;;;10.77;10.20;;;9.60;91.50;;;;;;4886654;29;20962;-83
2022/11/10 07:22:59;;;;;;;10.67;10.17;;;10.00;1.00;;;;;;4890000;29;20471;-83
2022/11/10 07:25:30;;;;;;;10.40;10.00;;;10.20;99.90;;;;;;4890945;29;20471;-83
2022/11/10 07:28:00;;;;;;;10.60;10.10;;;10.40;23.00;;;;;;4883995;29;20582;-82
2022/11/10 07:30:29;;;;;;;11.10;10.67;;;10.50;1.00;;;;;;4887099;29;20476;-83
2022/11/10 07:33:01;;;;;;;10.17;9.77;;;10.60;99.90;;;;;;4885705;29;20528;-82
2022/11/10 07:35:30;;;;;;;10.90;10.30;;;10.70;94.40;;;;;;4888379;29;20462;-83
2022/11/10 07:38:01;;;;;;;10.87;10.20;;;10.80;99.90;;;;;;4884533;29;20543;-82
2022/11/10 07:40:31;;;;;;;10.13;9.80;;;11.00;99.90;;;;;;4884301;29;21300;-80
2022/11/10 07:43:00;;;;;;;11.23;10.63;;;11.10;1.00;;;;;;4881147;29;20507;-83
2022/11/10 07:45:28;;;;;;;11.50;10.80;;;11.20;1.00;;;;;;4889145;29;20467;-83
2022/11/10 07:48:00;;;;;;;11.93;11.33;;;11.30;99.90;;;;;;4889094;29;20581;-82
2022/11/10 07:50:28;;;;;;;12.17;11.30;;;11.50;99.90;;;;;;4889802;29;20482;-83
2022/11/10 07:53:03;;;;;;;11.80;11.30;;;11.60;99.90;;;;;;4891812;29;20471;-82
2022/11/10 07:55:33;;;;;;;11.93;11.50;;;11.70;99.90;;;;;;4883181;29;20463;-83
2022/11/10 07:58:01;;;;;;;11.77;11.17;;;11.70;36.50;;;;;;4884050;29;20567;-83
2022/11/10 08:00:30;;;;;;;13.80;12.50;;;11.80;99.90;;;;;;4885809;29;20491;-83
2022/11/10 08:03:02;;;;;;;12.43;11.97;;;12.00;99.90;;;;;;4889996;29;20473;-83
2022/11/10 08:05:31;;;;;;;12.30;12.00;;;12.10;66.80;;;;;;4883661;29;20486;-83
2022/11/10 08:08:01;;;;;;;12.77;12.37;;;12.30;99.90;;;;;;4888277;29;20538;-84
2022/11/10 08:10:30;;;;;;;13.63;12.93;;;12.50;64.30;;;;;;4884313;29;20485;-83
2022/11/10 08:13:01;;;;;;;14.13;13.43;;;12.70;1.00;;;;;;4880398;29;20457;-79
2022/11/10 08:15:31;;;;;;;13.00;12.60;;;12.80;1.00;;;;;;4881829;29;20484;-78
2022/11/10 08:18:00;;;;;;;14.20;13.70;;;13.00;99.90;;;;;;4880690;29;20468;-80
2022/11/10 08:20:28;;;;;;;14.23;13.50;;;13.20;99.90;;;;;;4881074;29;20466;-79
2022/11/10 08:22:58;;;;;;;14.60;13.60;;;13.40;99.90;;;;;;4881523;29;20473;-79
2022/11/10 08:25:27;;;;;;;15.40;14.70;;;13.70;99.90;;;;;;4881219;29;20518;-78
2022/11/10 08:28:05;;;;;;;16.20;14.97;;;13.80;99.90;;;;;;4879726;29;20477;-79
2022/11/10 08:30:35;;;;;;;16.00;15.13;;;13.70;99.90;;;;;;4883487;29;20482;-81
2022/11/10 08:33:04;;;;;;;14.67;13.93;;;13.60;99.90;;;;;;4885204;29;20950;-83
2022/11/10 08:35:36;;;;;;;14.80;14.10;;;13.50;99.90;;;;;;4883710;29;20462;-82
2022/11/10 08:38:09;;;;;;;15.40;14.60;;;13.40;99.90;;;;;;4885556;29;20502;-84
2022/11/10 08:40:37;;;;;;;15.20;14.50;;;13.20;1.00;;;;;;4881735;29;20537;-84
2022/11/10 08:43:07;;;;;;;15.40;14.70;;;13.20;16.50;;;;;;4890836;29;20517;-83
2022/11/10 08:45:36;;;;;;;16.57;15.20;;;13.30;1.00;;;;;;4892071;29;20509;-84
2022/11/10 08:48:06;;;;;;;14.63;13.97;;;13.30;99.90;;;;;;4889237;29;20482;-84
2022/11/10 08:50:35;;;;;;;15.43;14.63;;;13.40;1.00;;;;;;4890010;29;20478;-83
2022/11/10 08:53:05;;;;;;;14.53;13.93;;;13.50;1.00;;;;;;4889371;29;20479;-84
2022/11/10 08:55:33;;;;;;;15.97;15.07;;;13.40;99.90;;;;;;4892281;29;20527;-85
2022/11/10 08:58:03;;;;;;;16.93;16.10;;;13.40;99.90;;;;;;4887530;29;20478;-84
2022/11/10 09:00:34;;;;;;;14.93;14.43;;;13.60;99.90;;;;;;4892969;29;20986;-84
2022/11/10 09:03:07;;;;;;;14.40;14.00;;;13.60;99.90;;;;;;4889063;29;20442;-84
2022/11/10 09:05:36;;;;;;;13.57;13.07;;;13.60;99.90;;;;;;4894099;29;20471;-85
2022/11/10 09:08:05;;;;;;;13.93;13.33;;;13.60;99.90;;;;;;4892553;29;20544;-85
2022/11/10 09:10:34;;;;;;;14.60;13.97;;;13.70;99.90;;;;;;4881461;29;20581;-84
2022/11/10 09:13:04;;;;;;;14.60;13.90;;;13.80;99.90;;;;;;4889722;29;21048;-85
2022/11/10 09:15:34;;;;;;;12.70;12.10;;;14.00;99.90;;;;;;4888394;29;20502;-85
2022/11/10 09:18:05;;;;;;;13.57;12.97;;;14.20;3.00;;;;;;4886942;29;20561;-84
2022/11/10 09:20:35;;;;;;;12.37;11.93;;;14.70;22.40;;;;;;4892736;29;20446;-84
2022/11/10 09:23:07;;;;;;;11.93;11.40;;;15.30;1.00;;;;;;4890916;29;20470;-84
2022/11/10 09:25:36;;;;;;;11.53;11.10;;;16.00;1.00;;;;;;4888400;29;20463;-83
2022/11/10 09:28:05;;;;;;;11.43;10.70;;;16.70;1.00;;;;;;4888693;29;20496;-83
2022/11/10 09:30:35;;;;;;;11.40;10.90;;;17.40;99.90;;;;;;4883781;29;20566;-84
2022/11/10 09:33:03;;;;;;;10.90;10.43;;;18.20;99.90;;;;;;4886151;29;20508;-85
2022/11/10 09:35:31;;;;;;;11.13;10.63;;;18.60;99.90;;;;;;4890906;29;21211;-84
2022/11/10 09:37:59;;;;;;;10.60;10.30;;;19.30;99.90;;;;;;4888380;29;20478;-83
2022/11/10 09:40:38;;;;;;;9.23;8.93;;;19.70;99.90;;;;;;4887824;29;20459;-84
2022/11/10 09:43:17;;;;;;;9.97;9.50;;;20.40;99.90;;;;;;4886963;29;20462;-84
2022/11/10 09:45:50;;;;;;;8.80;8.60;;;20.90;99.90;;;;;;4884657;29;20525;-84
2022/11/10 09:48:24;;;;;;;8.17;7.97;;;21.40;99.90;;;;;;4887460;29;20888;-84
2022/11/10 09:50:57;;;;;;;8.90;8.50;;;22.00;99.90;;;;;;4890940;29;20509;-84
2022/11/10 09:53:29;;;;;;;7.27;6.73;;;22.50;99.90;;;;;;4887968;29;20499;-84
2022/11/10 09:56:01;;;;;;;6.70;6.40;;;22.80;99.90;;;;;;4890162;29;20506;-83
2022/11/10 09:58:35;;;;;;;7.33;6.93;;;23.20;99.90;;;;;;4887185;29;20569;-83
2022/11/10 10:01:18;;;;;;;6.20;6.00;;;23.50;99.90;;;;;;4887494;29;20581;-85
2022/11/10 10:03:52;;;;;;;7.50;6.80;;;23.90;99.90;;;;;;4887058;29;20465;-84
2022/11/10 10:06:22;;;;;;;5.70;5.40;;;24.40;99.90;;;;;;4889940;29;20457;-85
2022/11/10 10:09:03;;;;;;;5.03;4.83;;;24.80;99.90;;;;;;4887154;29;21010;-85
2022/11/10 10:11:46;;;;;;;5.03;4.60;;;24.90;99.90;;;;;;4888508;29;21022;-85
2022/11/10 10:14:38;;;;;;;5.00;4.60;;;24.70;99.90;;;;;;4887001;29;20459;-84
2022/11/10 10:17:19;;;;;;;5.20;5.00;;;24.80;99.90;;;;;;4887711;29;20483;-83
2022/11/10 10:20:02;;;;;;;5.03;4.83;;;25.70;99.90;;;;;;4888693;29;21298;-84
2022/11/10 10:22:47;;;;;;;4.60;4.40;;;26.70;99.90;;;;;;4887832;29;20477;-84
2022/11/10 10:25:20;;;;;;;3.97;3.70;;;27.20;99.90;;;;;;4887286;29;21037;-85
2022/11/10 10:27:56;;;;;;;4.50;4.10;;;27.10;99.90;;;;;;4886563;29;20526;-85
2022/11/10 10:30:24;;;;;;;4.03;3.90;;;27.90;99.90;;;;;;4880606;29;20537;-84
2022/11/10 10:33:00;;;;;;;3.87;3.67;;;28.20;99.90;;;;;;4883433;29;20459;-85
2022/11/10 10:35:30;;;;;;;3.73;3.53;;;28.70;99.90;;;;;;4887910;29;20463;-84
2022/11/10 10:37:58;;;;;;;3.10;2.90;;;28.90;99.90;;;;;;4888252;29;21063;-84
2022/11/10 10:40:27;;;;;;;2.90;2.80;;;28.80;99.90;;;;;;4885121;29;20542;-85
2022/11/10 10:42:57;;;;;;;3.00;2.70;;;27.20;99.90;;;;;;4884340;29;20986;-85
2022/11/10 10:45:27;;;;;;;3.23;2.80;;;25.30;99.90;;;;;;4887479;29;20467;-83
2022/11/10 10:47:58;;;;;;;3.40;3.10;;;24.10;99.90;;;;;;4883441;29;21108;-84
2022/11/10 10:50:30;;;;;;;3.83;3.50;;;23.20;99.90;;;;;;4883912;29;20447;-85
2022/11/10 10:53:14;;;;;;;6.20;3.67;;;22.60;99.90;;;;;;4885528;29;20452;-84
2022/11/10 10:55:48;;;;;;;2.70;2.50;;;22.60;99.90;;;;;;4884302;29;20467;-83
2022/11/10 10:58:23;;;;;;;3.03;2.73;;;22.80;99.90;;;;;;4885310;29;20491;-85
2022/11/10 11:00:56;;;;;;;3.27;3.07;;;23.30;99.90;;;;;;4883512;29;20470;-83
2022/11/10 11:03:38;;;;;;;4.03;3.57;;;22.90;99.90;;;;;;4886061;29;20468;-84
2022/11/10 11:06:18;;;;;;;2.57;2.40;;;23.90;99.90;;;;;;4884975;29;20470;-85
2022/11/10 11:08:59;;;;;;;3.73;3.43;;;27.40;99.90;;;;;;4885862;29;20489;-83
2022/11/10 11:11:30;;;;;;;3.83;3.37;;;27.00;99.90;;;;;;4883020;29;20506;-83
2022/11/10 11:14:20;;;;;;;2.97;2.67;;;23.90;99.90;;;;;;4886057;29;20470;-86
2022/11/10 11:16:51;;;;;;;2.60;2.50;;;22.10;99.90;;;;;;4884969;29;20718;-84
2022/11/10 11:19:23;;;;;;;3.13;2.83;;;20.90;99.90;;;;;;4882094;29;20559;-82
2022/11/10 11:22:12;;;;;;;2.80;2.60;;;20.50;99.90;;;;;;4885063;29;21324;-84
2022/11/10 11:24:45;;;;;;;2.60;2.50;;;20.20;99.90;;;;;;4884921;29;20962;-82
2022/11/10 11:27:20;;;;;;;2.87;2.67;;;19.60;99.90;;;;;;4887021;29;21025;-83
2022/11/10 11:30:14;;;;;;;2.87;2.67;;;19.40;99.90;;;;;;4886568;29;20970;-82
2022/11/10 11:33:17;;;;;;;3.00;2.90;;;19.30;99.90;;;;;;4885845;29;20526;-82
2022/11/10 11:35:53;;;;;;;3.80;2.80;;;19.40;99.90;;;;;;4876529;29;20467;-83
2022/11/10 11:38:30;;;;;;;3.70;3.53;;;19.20;99.90;;;;;;4881273;29;20483;-83
2022/11/10 11:41:12;;;;;;;2.90;2.70;;;19.40;99.90;;;;;;4882912;29;20466;-81
2022/11/10 11:44:01;;;;;;;3.20;2.83;;;19.40;99.90;;;;;;4885288;29;20483;-82
2022/11/10 11:46:40;;;;;;;4.50;2.90;;;19.20;99.90;;;;;;4885439;29;20502;-81
2022/11/10 11:49:41;;;;;;;2.80;2.70;;;19.40;99.90;;;;;;4888280;29;20516;-84
2022/11/10 11:52:19;;;;;;;3.10;2.90;;;19.30;99.90;;;;;;4885815;29;20495;-82
2022/11/10 11:55:08;;;;;;;3.23;2.97;;;19.30;99.90;;;;;;4886607;29;21105;-82
2022/11/10 11:57:49;;;;;;;3.90;3.23;;;19.50;99.90;;;;;;4879335;29;20567;-82
2022/11/10 12:00:18;;;;;;;3.43;3.23;;;19.40;99.90;;;;;;4886596;29;20906;-82
2022/11/10 12:03:25;;;;;;;3.83;2.80;;;19.20;99.90;;;;;;4888579;29;20451;-82
2022/11/10 12:06:14;;;;;;;2.90;2.80;;;19.20;99.90;;;;;;4884193;29;20459;-82
2022/11/10 12:08:51;;;;;;;2.87;2.67;;;18.80;99.90;;;;;;4885602;29;20490;-81
2022/11/10 12:11:31;;;;;;;8.40;3.20;;;18.90;99.90;;;;;;4887822;29;20463;-85
2022/11/10 12:14:06;;;;;;;2.67;2.47;;;19.00;99.90;;;;;;4884368;29;20825;-81
2022/11/10 12:16:35;;;;;;;2.73;2.63;;;19.00;99.90;;;;;;4889283;29;20547;-81
2022/11/10 12:19:14;;;;;;;2.70;2.60;;;19.00;99.90;;;;;;4892922;29;20568;-83
2022/11/10 12:21:51;;;;;;;2.90;2.80;;;18.90;99.90;;;;;;4892921;29;20601;-83
2022/11/10 12:24:37;;;;;;;2.77;2.60;;;18.80;99.90;;;;;;4893298;29;21011;-82
2022/11/10 12:27:13;;;;;;;2.80;2.70;;;19.00;99.90;;;;;;4890416;29;20478;-82
2022/11/10 12:29:46;;;;;;;2.30;2.20;;;18.60;99.90;;;;;;4892542;29;21087;-81
2022/11/10 12:32:22;;;;;;;5.77;3.87;;;18.70;99.90;;;;;;4887848;29;20498;-82
2022/11/10 12:34:55;;;;;;;21.70;5.33;;;18.70;99.90;;;;;;4887356;29;21103;-82
2022/11/10 12:37:30;;;;;;;2.50;2.40;;;18.60;99.90;;;;;;4885463;29;20479;-79
2022/11/10 12:40:05;;;;;;;2.60;2.40;;;18.50;99.90;;;;;;4882598;29;20465;-79
2022/11/10 12:42:37;;;;;;;3.27;3.07;;;18.50;99.90;;;;;;4885602;29;21281;-78
2022/11/10 12:45:07;;;;;;;3.23;3.03;;;18.60;99.90;;;;;;4888311;29;20530;-79
2022/11/10 12:47:41;;;;;;;3.83;2.87;;;18.70;99.90;;;;;;4885190;29;20563;-79
2022/11/10 12:50:34;;;;;;;2.43;2.30;;;18.70;99.90;;;;;;4885592;29;20523;-78
2022/11/10 12:53:11;;;;;;;2.53;2.37;;;18.80;99.90;;;;;;4886386;29;20503;-79
2022/11/10 12:55:45;;;;;;;2.50;2.40;;;18.70;99.90;;;;;;4886807;29;20461;-80
2022/11/10 12:58:14;;;;;;;4.00;2.50;;;18.70;99.90;;;;;;4887772;29;20478;-80
2022/11/10 13:00:45;;;;;;;2.60;2.50;;;18.70;99.90;;;;;;4890829;29;20560;-79
2022/11/10 13:03:29;;;;;;;3.13;2.70;;;18.60;99.90;;;;;;4886541;29;20454;-81
2022/11/10 13:06:00;;;;;;;3.80;2.30;;;18.30;99.90;;;;;;4888680;29;20454;-81
2022/11/10 13:08:35;;;;;;;3.10;2.30;;;18.40;99.90;;;;;;4891564;29;20510;-79
2022/11/10 13:11:20;;;;;;;2.40;2.30;;;18.20;99.90;;;;;;4892063;29;20477;-80
2022/11/10 13:13:58;;;;;;;2.50;2.40;;;18.30;99.90;;;;;;4880374;29;20550;-81